sensor_id;sensor_type;location;lat;lon;timestamp;P1;durP1;ratioP1;P2;durP2;ratioP2
4244;SDS011;2136;48.502;9.194;2022-12-18T00:02:14;46.78;;;23.20;;
4244;SDS011;2136;48.502;9.194;2022-12-18T00:04:42;51.05;;;25.08;;
4244;SDS011;2136;48.502;9.194;2022-12-18T00:07:10;50.05;;;24.63;;
4244;SDS011;2136;48.502;9.194;2022-12-18T00:09:36;56.22;;;26.52;;
4244;SDS011;2136;48.502;9.194;2022-12-18T00:12:03;45.83;;;24.23;;
4244;SDS011;2136;48.502;9.194;2022-12-18T00:14:30;55.63;;;26.25;;
4244;SDS011;2136;48.502;9.194;2022-12-18T00:16:57;51.17;;;23.60;;
4244;SDS011;2136;48.502;9.194;2022-12-18T00:19:25;44.28;;;23.15;;
4244;SDS011;2136;48.502;9.194;2022-12-18T00:21:53;49.67;;;24.00;;
4244;SDS011;2136;48.502;9.194;2022-12-18T00:24:20;47.53;;;22.77;;
4244;SDS011;2136;48.502;9.194;2022-12-18T00:26:47;52.22;;;24.88;;
4244;SDS011;2136;48.502;9.194;2022-12-18T00:29:14;41.90;;;22.35;;
4244;SDS011;2136;48.502;9.194;2022-12-18T00:31:41;53.95;;;25.58;;
4244;SDS011;2136;48.502;9.194;2022-12-18T00:34:09;54.83;;;25.20;;
4244;SDS011;2136;48.502;9.194;2022-12-18T00:36:37;45.70;;;22.92;;
4244;SDS011;2136;48.502;9.194;2022-12-18T00:39:07;54.55;;;25.27;;
4244;SDS011;2136;48.502;9.194;2022-12-18T00:41:34;50.35;;;23.70;;
4244;SDS011;2136;48.502;9.194;2022-12-18T00:44:18;44.38;;;21.85;;
4244;SDS011;2136;48.502;9.194;2022-12-18T00:46:46;43.42;;;23.10;;
4244;SDS011;2136;48.502;9.194;2022-12-18T00:49:13;55.75;;;24.58;;
4244;SDS011;2136;48.502;9.194;2022-12-18T00:51:41;54.00;;;22.13;;
4244;SDS011;2136;48.502;9.194;2022-12-18T00:54:09;43.70;;;20.85;;
4244;SDS011;2136;48.502;9.194;2022-12-18T00:56:37;47.40;;;23.17;;
4244;SDS011;2136;48.502;9.194;2022-12-18T00:59:04;39.90;;;19.95;;
4244;SDS011;2136;48.502;9.194;2022-12-18T01:01:31;41.20;;;21.80;;
4244;SDS011;2136;48.502;9.194;2022-12-18T01:03:59;43.78;;;22.60;;
4244;SDS011;2136;48.502;9.194;2022-12-18T01:06:26;39.70;;;22.30;;
4244;SDS011;2136;48.502;9.194;2022-12-18T01:08:53;38.10;;;20.88;;
4244;SDS011;2136;48.502;9.194;2022-12-18T01:11:22;38.60;;;19.50;;
4244;SDS011;2136;48.502;9.194;2022-12-18T01:13:49;43.42;;;21.45;;
4244;SDS011;2136;48.502;9.194;2022-12-18T01:16:16;44.95;;;21.05;;
4244;SDS011;2136;48.502;9.194;2022-12-18T01:18:43;39.70;;;19.48;;
4244;SDS011;2136;48.502;9.194;2022-12-18T01:21:12;46.58;;;22.10;;
4244;SDS011;2136;48.502;9.194;2022-12-18T01:23:40;42.35;;;20.95;;
4244;SDS011;2136;48.502;9.194;2022-12-18T01:26:07;41.33;;;20.55;;
4244;SDS011;2136;48.502;9.194;2022-12-18T01:28:37;44.80;;;21.83;;
4244;SDS011;2136;48.502;9.194;2022-12-18T01:31:12;45.65;;;20.15;;
4244;SDS011;2136;48.502;9.194;2022-12-18T01:33:41;43.35;;;21.33;;
4244;SDS011;2136;48.502;9.194;2022-12-18T01:36:08;46.20;;;20.92;;
4244;SDS011;2136;48.502;9.194;2022-12-18T01:38:40;40.08;;;20.20;;
4244;SDS011;2136;48.502;9.194;2022-12-18T01:41:07;42.78;;;20.30;;
4244;SDS011;2136;48.502;9.194;2022-12-18T01:43:47;44.83;;;20.50;;
4244;SDS011;2136;48.502;9.194;2022-12-18T01:46:17;39.13;;;21.65;;
4244;SDS011;2136;48.502;9.194;2022-12-18T01:48:46;39.53;;;20.80;;
4244;SDS011;2136;48.502;9.194;2022-12-18T01:51:16;45.42;;;21.40;;
4244;SDS011;2136;48.502;9.194;2022-12-18T01:53:43;41.08;;;19.05;;
4244;SDS011;2136;48.502;9.194;2022-12-18T01:56:15;45.50;;;22.25;;
4244;SDS011;2136;48.502;9.194;2022-12-18T01:58:48;39.10;;;21.08;;
4244;SDS011;2136;48.502;9.194;2022-12-18T02:01:20;48.20;;;21.85;;
4244;SDS011;2136;48.502;9.194;2022-12-18T02:03:48;40.17;;;20.38;;
4244;SDS011;2136;48.502;9.194;2022-12-18T02:06:16;45.10;;;20.35;;
4244;SDS011;2136;48.502;9.194;2022-12-18T02:08:50;49.30;;;21.08;;
4244;SDS011;2136;48.502;9.194;2022-12-18T02:11:28;45.25;;;22.85;;
4244;SDS011;2136;48.502;9.194;2022-12-18T02:14:07;47.05;;;21.10;;
4244;SDS011;2136;48.502;9.194;2022-12-18T02:16:43;43.47;;;19.20;;
4244;SDS011;2136;48.502;9.194;2022-12-18T02:19:20;55.85;;;21.80;;
4244;SDS011;2136;48.502;9.194;2022-12-18T02:22:04;43.63;;;22.00;;
4244;SDS011;2136;48.502;9.194;2022-12-18T02:24:41;46.55;;;21.25;;
4244;SDS011;2136;48.502;9.194;2022-12-18T02:27:19;47.45;;;22.15;;
4244;SDS011;2136;48.502;9.194;2022-12-18T02:29:48;50.17;;;21.30;;
4244;SDS011;2136;48.502;9.194;2022-12-18T02:32:18;45.70;;;20.23;;
4244;SDS011;2136;48.502;9.194;2022-12-18T02:34:51;39.47;;;20.65;;
4244;SDS011;2136;48.502;9.194;2022-12-18T02:37:20;47.65;;;19.63;;
4244;SDS011;2136;48.502;9.194;2022-12-18T02:39:49;42.05;;;20.50;;
4244;SDS011;2136;48.502;9.194;2022-12-18T02:42:18;44.67;;;21.67;;
4244;SDS011;2136;48.502;9.194;2022-12-18T02:44:47;48.05;;;21.88;;
4244;SDS011;2136;48.502;9.194;2022-12-18T02:47:15;46.78;;;19.92;;
4244;SDS011;2136;48.502;9.194;2022-12-18T02:49:49;45.22;;;21.50;;
4244;SDS011;2136;48.502;9.194;2022-12-18T02:52:25;51.58;;;21.38;;
4244;SDS011;2136;48.502;9.194;2022-12-18T02:55:00;38.20;;;20.20;;
4244;SDS011;2136;48.502;9.194;2022-12-18T02:57:39;45.63;;;20.52;;
4244;SDS011;2136;48.502;9.194;2022-12-18T03:00:10;50.13;;;20.55;;
4244;SDS011;2136;48.502;9.194;2022-12-18T03:02:41;42.20;;;21.92;;
4244;SDS011;2136;48.502;9.194;2022-12-18T03:05:13;50.67;;;22.83;;
4244;SDS011;2136;48.502;9.194;2022-12-18T03:07:45;40.95;;;20.60;;
4244;SDS011;2136;48.502;9.194;2022-12-18T03:10:17;47.33;;;22.95;;
4244;SDS011;2136;48.502;9.194;2022-12-18T03:12:51;45.53;;;21.20;;
4244;SDS011;2136;48.502;9.194;2022-12-18T03:15:21;48.55;;;22.25;;
4244;SDS011;2136;48.502;9.194;2022-12-18T03:17:52;47.30;;;21.45;;
4244;SDS011;2136;48.502;9.194;2022-12-18T03:20:25;49.70;;;21.77;;
4244;SDS011;2136;48.502;9.194;2022-12-18T03:22:56;45.47;;;23.83;;
4244;SDS011;2136;48.502;9.194;2022-12-18T03:25:28;39.55;;;20.58;;
4244;SDS011;2136;48.502;9.194;2022-12-18T03:27:58;45.28;;;21.70;;
4244;SDS011;2136;48.502;9.194;2022-12-18T03:30:29;41.97;;;21.60;;
4244;SDS011;2136;48.502;9.194;2022-12-18T03:33:00;42.58;;;20.45;;
4244;SDS011;2136;48.502;9.194;2022-12-18T03:35:33;49.75;;;20.45;;
4244;SDS011;2136;48.502;9.194;2022-12-18T03:38:03;44.20;;;19.55;;
4244;SDS011;2136;48.502;9.194;2022-12-18T03:40:32;51.08;;;22.30;;
4244;SDS011;2136;48.502;9.194;2022-12-18T03:43:08;47.58;;;23.50;;
4244;SDS011;2136;48.502;9.194;2022-12-18T03:45:41;51.00;;;22.35;;
4244;SDS011;2136;48.502;9.194;2022-12-18T03:48:16;45.50;;;21.17;;
4244;SDS011;2136;48.502;9.194;2022-12-18T03:50:49;49.80;;;22.05;;
4244;SDS011;2136;48.502;9.194;2022-12-18T03:53:24;58.25;;;22.50;;
4244;SDS011;2136;48.502;9.194;2022-12-18T03:55:57;50.85;;;21.95;;
4244;SDS011;2136;48.502;9.194;2022-12-18T03:58:27;43.35;;;20.35;;
4244;SDS011;2136;48.502;9.194;2022-12-18T04:00:59;49.97;;;21.92;;
4244;SDS011;2136;48.502;9.194;2022-12-18T04:03:29;40.90;;;19.60;;
4244;SDS011;2136;48.502;9.194;2022-12-18T04:05:57;60.30;;;22.77;;
4244;SDS011;2136;48.502;9.194;2022-12-18T04:08:26;51.05;;;22.15;;
4244;SDS011;2136;48.502;9.194;2022-12-18T04:10:53;51.85;;;21.00;;
4244;SDS011;2136;48.502;9.194;2022-12-18T04:13:23;49.17;;;22.33;;
4244;SDS011;2136;48.502;9.194;2022-12-18T04:15:54;49.20;;;21.27;;
4244;SDS011;2136;48.502;9.194;2022-12-18T04:18:21;46.67;;;21.42;;
4244;SDS011;2136;48.502;9.194;2022-12-18T04:20:48;47.75;;;21.20;;
4244;SDS011;2136;48.502;9.194;2022-12-18T04:23:15;43.22;;;21.60;;
4244;SDS011;2136;48.502;9.194;2022-12-18T04:25:41;54.20;;;21.52;;
4244;SDS011;2136;48.502;9.194;2022-12-18T04:28:08;52.75;;;20.55;;
4244;SDS011;2136;48.502;9.194;2022-12-18T04:30:35;52.47;;;22.90;;
4244;SDS011;2136;48.502;9.194;2022-12-18T04:33:03;47.03;;;21.70;;
4244;SDS011;2136;48.502;9.194;2022-12-18T04:35:34;46.42;;;19.33;;
4244;SDS011;2136;48.502;9.194;2022-12-18T04:38:00;45.60;;;21.35;;
4244;SDS011;2136;48.502;9.194;2022-12-18T04:40:27;45.67;;;19.38;;
4244;SDS011;2136;48.502;9.194;2022-12-18T04:42:54;43.28;;;19.80;;
4244;SDS011;2136;48.502;9.194;2022-12-18T04:45:21;50.33;;;21.25;;
4244;SDS011;2136;48.502;9.194;2022-12-18T04:47:47;41.17;;;18.42;;
4244;SDS011;2136;48.502;9.194;2022-12-18T04:50:16;50.45;;;21.77;;
4244;SDS011;2136;48.502;9.194;2022-12-18T04:52:43;44.75;;;20.25;;
4244;SDS011;2136;48.502;9.194;2022-12-18T04:55:09;46.03;;;19.35;;
4244;SDS011;2136;48.502;9.194;2022-12-18T04:57:36;46.60;;;20.58;;
4244;SDS011;2136;48.502;9.194;2022-12-18T05:00:03;46.50;;;19.67;;
4244;SDS011;2136;48.502;9.194;2022-12-18T05:02:31;43.40;;;18.90;;
4244;SDS011;2136;48.502;9.194;2022-12-18T05:04:58;41.33;;;19.48;;
4244;SDS011;2136;48.502;9.194;2022-12-18T05:07:26;39.92;;;20.08;;
4244;SDS011;2136;48.502;9.194;2022-12-18T05:09:53;38.53;;;18.83;;
4244;SDS011;2136;48.502;9.194;2022-12-18T05:12:20;42.20;;;19.30;;
4244;SDS011;2136;48.502;9.194;2022-12-18T05:14:46;43.17;;;20.42;;
4244;SDS011;2136;48.502;9.194;2022-12-18T05:17:13;43.75;;;21.33;;
4244;SDS011;2136;48.502;9.194;2022-12-18T05:19:40;43.20;;;19.67;;
4244;SDS011;2136;48.502;9.194;2022-12-18T05:22:07;43.80;;;18.92;;
4244;SDS011;2136;48.502;9.194;2022-12-18T05:24:35;37.63;;;19.00;;
4244;SDS011;2136;48.502;9.194;2022-12-18T05:27:02;41.10;;;18.85;;
4244;SDS011;2136;48.502;9.194;2022-12-18T05:29:29;46.15;;;21.83;;
4244;SDS011;2136;48.502;9.194;2022-12-18T05:31:55;48.65;;;21.20;;
4244;SDS011;2136;48.502;9.194;2022-12-18T05:34:22;37.88;;;17.40;;
4244;SDS011;2136;48.502;9.194;2022-12-18T05:36:49;48.78;;;21.20;;
4244;SDS011;2136;48.502;9.194;2022-12-18T05:39:16;51.17;;;23.13;;
4244;SDS011;2136;48.502;9.194;2022-12-18T05:41:44;54.30;;;21.60;;
4244;SDS011;2136;48.502;9.194;2022-12-18T05:44:11;46.50;;;20.50;;
4244;SDS011;2136;48.502;9.194;2022-12-18T05:46:37;44.80;;;19.48;;
4244;SDS011;2136;48.502;9.194;2022-12-18T05:49:04;51.83;;;21.38;;
4244;SDS011;2136;48.502;9.194;2022-12-18T05:51:31;49.40;;;22.13;;
4244;SDS011;2136;48.502;9.194;2022-12-18T05:53:58;43.63;;;22.33;;
4244;SDS011;2136;48.502;9.194;2022-12-18T05:56:24;37.33;;;18.45;;
4244;SDS011;2136;48.502;9.194;2022-12-18T05:58:53;48.35;;;20.67;;
4244;SDS011;2136;48.502;9.194;2022-12-18T06:01:22;39.17;;;19.20;;
4244;SDS011;2136;48.502;9.194;2022-12-18T06:03:50;50.65;;;22.70;;
4244;SDS011;2136;48.502;9.194;2022-12-18T06:06:18;46.15;;;21.05;;
4244;SDS011;2136;48.502;9.194;2022-12-18T06:08:47;45.95;;;22.45;;
4244;SDS011;2136;48.502;9.194;2022-12-18T06:11:16;53.03;;;20.85;;
4244;SDS011;2136;48.502;9.194;2022-12-18T06:13:44;47.60;;;20.30;;
4244;SDS011;2136;48.502;9.194;2022-12-18T06:16:12;45.33;;;21.02;;
4244;SDS011;2136;48.502;9.194;2022-12-18T06:18:39;58.95;;;21.80;;
4244;SDS011;2136;48.502;9.194;2022-12-18T06:21:06;48.13;;;20.80;;
4244;SDS011;2136;48.502;9.194;2022-12-18T06:23:33;48.92;;;20.75;;
4244;SDS011;2136;48.502;9.194;2022-12-18T06:26:03;46.75;;;20.02;;
4244;SDS011;2136;48.502;9.194;2022-12-18T06:28:31;45.33;;;20.92;;
4244;SDS011;2136;48.502;9.194;2022-12-18T06:30:58;42.08;;;18.85;;
4244;SDS011;2136;48.502;9.194;2022-12-18T06:33:26;52.50;;;22.52;;
4244;SDS011;2136;48.502;9.194;2022-12-18T06:35:54;47.88;;;21.63;;
4244;SDS011;2136;48.502;9.194;2022-12-18T06:38:25;38.15;;;20.35;;
4244;SDS011;2136;48.502;9.194;2022-12-18T06:40:52;49.50;;;20.60;;
4244;SDS011;2136;48.502;9.194;2022-12-18T06:43:19;59.83;;;20.58;;
4244;SDS011;2136;48.502;9.194;2022-12-18T06:45:45;49.60;;;19.85;;
4244;SDS011;2136;48.502;9.194;2022-12-18T06:48:17;45.17;;;20.88;;
4244;SDS011;2136;48.502;9.194;2022-12-18T06:50:45;47.60;;;21.05;;
4244;SDS011;2136;48.502;9.194;2022-12-18T06:53:12;40.65;;;20.00;;
4244;SDS011;2136;48.502;9.194;2022-12-18T06:55:39;49.40;;;19.88;;
4244;SDS011;2136;48.502;9.194;2022-12-18T06:58:06;52.70;;;21.75;;
4244;SDS011;2136;48.502;9.194;2022-12-18T07:00:33;44.28;;;18.52;;
4244;SDS011;2136;48.502;9.194;2022-12-18T07:03:00;45.92;;;20.80;;
4244;SDS011;2136;48.502;9.194;2022-12-18T07:05:27;47.63;;;21.67;;
4244;SDS011;2136;48.502;9.194;2022-12-18T07:07:55;38.35;;;17.77;;
4244;SDS011;2136;48.502;9.194;2022-12-18T07:10:22;48.15;;;19.85;;
4244;SDS011;2136;48.502;9.194;2022-12-18T07:12:48;44.35;;;21.88;;
4244;SDS011;2136;48.502;9.194;2022-12-18T07:15:15;51.20;;;23.02;;
4244;SDS011;2136;48.502;9.194;2022-12-18T07:17:42;50.67;;;23.45;;
4244;SDS011;2136;48.502;9.194;2022-12-18T07:20:09;48.97;;;23.17;;
4244;SDS011;2136;48.502;9.194;2022-12-18T07:22:36;48.85;;;22.58;;
4244;SDS011;2136;48.502;9.194;2022-12-18T07:25:05;46.30;;;21.00;;
4244;SDS011;2136;48.502;9.194;2022-12-18T07:27:33;46.60;;;20.25;;
4244;SDS011;2136;48.502;9.194;2022-12-18T07:30:00;47.28;;;21.23;;
4244;SDS011;2136;48.502;9.194;2022-12-18T07:32:27;51.80;;;21.63;;
4244;SDS011;2136;48.502;9.194;2022-12-18T07:34:54;35.03;;;19.83;;
4244;SDS011;2136;48.502;9.194;2022-12-18T07:37:20;37.78;;;20.15;;
4244;SDS011;2136;48.502;9.194;2022-12-18T07:39:47;37.55;;;20.75;;
4244;SDS011;2136;48.502;9.194;2022-12-18T07:42:15;45.60;;;22.38;;
4244;SDS011;2136;48.502;9.194;2022-12-18T07:44:57;47.63;;;21.35;;
4244;SDS011;2136;48.502;9.194;2022-12-18T07:47:24;36.75;;;19.63;;
4244;SDS011;2136;48.502;9.194;2022-12-18T07:49:51;36.00;;;18.42;;
4244;SDS011;2136;48.502;9.194;2022-12-18T07:52:18;38.25;;;17.67;;
4244;SDS011;2136;48.502;9.194;2022-12-18T07:54:45;38.60;;;18.08;;
4244;SDS011;2136;48.502;9.194;2022-12-18T07:57:13;40.47;;;19.10;;
4244;SDS011;2136;48.502;9.194;2022-12-18T07:59:42;36.33;;;17.80;;
4244;SDS011;2136;48.502;9.194;2022-12-18T08:02:08;37.60;;;19.20;;
4244;SDS011;2136;48.502;9.194;2022-12-18T08:04:35;43.85;;;21.58;;
4244;SDS011;2136;48.502;9.194;2022-12-18T08:07:02;44.17;;;19.30;;
4244;SDS011;2136;48.502;9.194;2022-12-18T08:09:29;46.05;;;21.80;;
4244;SDS011;2136;48.502;9.194;2022-12-18T08:11:56;45.25;;;20.45;;
4244;SDS011;2136;48.502;9.194;2022-12-18T08:14:24;41.20;;;20.80;;
4244;SDS011;2136;48.502;9.194;2022-12-18T08:16:51;42.53;;;19.92;;
4244;SDS011;2136;48.502;9.194;2022-12-18T08:19:17;57.00;;;23.65;;
4244;SDS011;2136;48.502;9.194;2022-12-18T08:21:44;57.60;;;24.67;;
4244;SDS011;2136;48.502;9.194;2022-12-18T08:24:11;56.58;;;21.75;;
4244;SDS011;2136;48.502;9.194;2022-12-18T08:26:38;51.28;;;21.65;;
4244;SDS011;2136;48.502;9.194;2022-12-18T08:29:05;46.40;;;23.08;;
4244;SDS011;2136;48.502;9.194;2022-12-18T08:31:33;44.75;;;20.55;;
4244;SDS011;2136;48.502;9.194;2022-12-18T08:34:00;39.65;;;20.23;;
4244;SDS011;2136;48.502;9.194;2022-12-18T08:36:26;46.40;;;21.08;;
4244;SDS011;2136;48.502;9.194;2022-12-18T08:38:53;43.65;;;22.48;;
4244;SDS011;2136;48.502;9.194;2022-12-18T08:41:20;47.58;;;22.83;;
4244;SDS011;2136;48.502;9.194;2022-12-18T08:43:47;59.05;;;25.55;;
4244;SDS011;2136;48.502;9.194;2022-12-18T08:46:34;47.50;;;23.08;;
4244;SDS011;2136;48.502;9.194;2022-12-18T08:49:02;71.72;;;28.85;;
4244;SDS011;2136;48.502;9.194;2022-12-18T08:51:30;56.53;;;24.90;;
4244;SDS011;2136;48.502;9.194;2022-12-18T08:53:57;49.50;;;25.13;;
4244;SDS011;2136;48.502;9.194;2022-12-18T08:56:24;66.43;;;25.35;;
4244;SDS011;2136;48.502;9.194;2022-12-18T08:58:51;51.40;;;24.70;;
4244;SDS011;2136;48.502;9.194;2022-12-18T09:01:18;45.10;;;21.90;;
4244;SDS011;2136;48.502;9.194;2022-12-18T09:03:48;47.28;;;24.63;;
4244;SDS011;2136;48.502;9.194;2022-12-18T09:06:16;43.70;;;20.77;;
4244;SDS011;2136;48.502;9.194;2022-12-18T09:08:44;48.78;;;23.48;;
4244;SDS011;2136;48.502;9.194;2022-12-18T09:11:13;49.53;;;24.00;;
4244;SDS011;2136;48.502;9.194;2022-12-18T09:13:41;53.10;;;23.27;;
4244;SDS011;2136;48.502;9.194;2022-12-18T09:16:07;45.75;;;19.83;;
4244;SDS011;2136;48.502;9.194;2022-12-18T09:18:34;45.70;;;22.60;;
4244;SDS011;2136;48.502;9.194;2022-12-18T09:21:08;53.40;;;23.02;;
4244;SDS011;2136;48.502;9.194;2022-12-18T09:23:36;61.03;;;25.70;;
4244;SDS011;2136;48.502;9.194;2022-12-18T09:26:02;93.22;;;32.15;;
4244;SDS011;2136;48.502;9.194;2022-12-18T09:28:29;56.78;;;27.75;;
4244;SDS011;2136;48.502;9.194;2022-12-18T09:30:56;49.97;;;23.13;;
4244;SDS011;2136;48.502;9.194;2022-12-18T09:33:23;59.75;;;27.15;;
4244;SDS011;2136;48.502;9.194;2022-12-18T09:35:50;47.20;;;23.40;;
4244;SDS011;2136;48.502;9.194;2022-12-18T09:38:19;57.58;;;25.67;;
4244;SDS011;2136;48.502;9.194;2022-12-18T09:40:47;51.63;;;24.08;;
4244;SDS011;2136;48.502;9.194;2022-12-18T09:43:17;53.25;;;25.55;;
4244;SDS011;2136;48.502;9.194;2022-12-18T09:45:46;59.42;;;23.27;;
4244;SDS011;2136;48.502;9.194;2022-12-18T09:48:18;59.47;;;25.65;;
4244;SDS011;2136;48.502;9.194;2022-12-18T09:50:48;57.60;;;26.17;;
4244;SDS011;2136;48.502;9.194;2022-12-18T09:53:17;47.55;;;21.83;;
4244;SDS011;2136;48.502;9.194;2022-12-18T09:55:48;51.03;;;22.35;;
4244;SDS011;2136;48.502;9.194;2022-12-18T09:58:19;55.38;;;24.90;;
4244;SDS011;2136;48.502;9.194;2022-12-18T10:00:53;53.10;;;23.10;;
4244;SDS011;2136;48.502;9.194;2022-12-18T10:03:20;54.42;;;23.02;;
4244;SDS011;2136;48.502;9.194;2022-12-18T10:05:50;55.85;;;25.15;;
4244;SDS011;2136;48.502;9.194;2022-12-18T10:08:27;61.20;;;24.92;;
4244;SDS011;2136;48.502;9.194;2022-12-18T10:11:03;54.85;;;25.10;;
4244;SDS011;2136;48.502;9.194;2022-12-18T10:13:48;60.50;;;25.70;;
4244;SDS011;2136;48.502;9.194;2022-12-18T10:16:23;58.78;;;26.10;;
4244;SDS011;2136;48.502;9.194;2022-12-18T10:19:00;73.30;;;27.13;;
4244;SDS011;2136;48.502;9.194;2022-12-18T10:21:37;64.10;;;25.63;;
4244;SDS011;2136;48.502;9.194;2022-12-18T10:24:14;57.08;;;26.45;;
4244;SDS011;2136;48.502;9.194;2022-12-18T10:26:47;60.83;;;28.00;;
4244;SDS011;2136;48.502;9.194;2022-12-18T10:29:14;61.60;;;27.67;;
4244;SDS011;2136;48.502;9.194;2022-12-18T10:31:42;54.95;;;25.70;;
4244;SDS011;2136;48.502;9.194;2022-12-18T10:34:09;50.03;;;25.60;;
4244;SDS011;2136;48.502;9.194;2022-12-18T10:36:36;50.35;;;25.30;;
4244;SDS011;2136;48.502;9.194;2022-12-18T10:39:18;55.80;;;26.38;;
4244;SDS011;2136;48.502;9.194;2022-12-18T10:41:47;49.42;;;26.73;;
4244;SDS011;2136;48.502;9.194;2022-12-18T10:44:16;51.53;;;23.20;;
4244;SDS011;2136;48.502;9.194;2022-12-18T10:46:44;83.05;;;28.50;;
4244;SDS011;2136;48.502;9.194;2022-12-18T10:49:25;68.47;;;25.92;;
4244;SDS011;2136;48.502;9.194;2022-12-18T10:52:04;49.97;;;25.40;;
4244;SDS011;2136;48.502;9.194;2022-12-18T10:54:35;49.35;;;26.55;;
4244;SDS011;2136;48.502;9.194;2022-12-18T10:59:59;54.47;;;24.85;;
4244;SDS011;2136;48.502;9.194;2022-12-18T11:02:46;51.80;;;24.95;;
4244;SDS011;2136;48.502;9.194;2022-12-18T11:05:23;48.42;;;25.90;;
4244;SDS011;2136;48.502;9.194;2022-12-18T11:07:52;54.80;;;26.33;;
4244;SDS011;2136;48.502;9.194;2022-12-18T11:10:22;54.85;;;24.92;;
4244;SDS011;2136;48.502;9.194;2022-12-18T11:12:52;48.42;;;25.63;;
4244;SDS011;2136;48.502;9.194;2022-12-18T11:15:19;55.90;;;25.33;;
4244;SDS011;2136;48.502;9.194;2022-12-18T11:17:48;58.78;;;27.35;;
4244;SDS011;2136;48.502;9.194;2022-12-18T11:20:21;49.08;;;25.95;;
4244;SDS011;2136;48.502;9.194;2022-12-18T11:22:57;47.30;;;22.40;;
4244;SDS011;2136;48.502;9.194;2022-12-18T11:25:27;42.95;;;23.70;;
4244;SDS011;2136;48.502;9.194;2022-12-18T11:27:55;47.35;;;21.48;;
4244;SDS011;2136;48.502;9.194;2022-12-18T11:30:23;41.63;;;23.00;;
4244;SDS011;2136;48.502;9.194;2022-12-18T11:32:52;45.30;;;22.50;;
4244;SDS011;2136;48.502;9.194;2022-12-18T11:35:30;47.50;;;22.00;;
4244;SDS011;2136;48.502;9.194;2022-12-18T11:38:14;40.90;;;21.10;;
4244;SDS011;2136;48.502;9.194;2022-12-18T11:40:51;46.00;;;24.43;;
4244;SDS011;2136;48.502;9.194;2022-12-18T11:43:24;46.50;;;23.67;;
4244;SDS011;2136;48.502;9.194;2022-12-18T11:45:55;46.50;;;24.63;;
4244;SDS011;2136;48.502;9.194;2022-12-18T11:48:26;45.47;;;21.13;;
4244;SDS011;2136;48.502;9.194;2022-12-18T11:50:57;46.40;;;24.93;;
4244;SDS011;2136;48.502;9.194;2022-12-18T11:53:26;47.73;;;22.47;;
4244;SDS011;2136;48.502;9.194;2022-12-18T11:55:58;44.57;;;23.27;;
4244;SDS011;2136;48.502;9.194;2022-12-18T11:58:38;46.95;;;23.88;;
4244;SDS011;2136;48.502;9.194;2022-12-18T12:01:18;55.07;;;23.57;;
4244;SDS011;2136;48.502;9.194;2022-12-18T12:06:52;48.28;;;23.10;;
4244;SDS011;2136;48.502;9.194;2022-12-18T12:09:28;59.25;;;25.80;;
4244;SDS011;2136;48.502;9.194;2022-12-18T12:12:06;53.40;;;26.70;;
4244;SDS011;2136;48.502;9.194;2022-12-18T12:14:49;55.72;;;26.65;;
4244;SDS011;2136;48.502;9.194;2022-12-18T12:17:24;58.65;;;26.90;;
4244;SDS011;2136;48.502;9.194;2022-12-18T12:20:02;50.00;;;24.45;;
4244;SDS011;2136;48.502;9.194;2022-12-18T12:22:39;54.72;;;27.20;;
4244;SDS011;2136;48.502;9.194;2022-12-18T12:25:18;58.00;;;27.88;;
4244;SDS011;2136;48.502;9.194;2022-12-18T12:27:57;55.67;;;27.02;;
4244;SDS011;2136;48.502;9.194;2022-12-18T12:30:38;53.63;;;27.63;;
4244;SDS011;2136;48.502;9.194;2022-12-18T12:33:14;55.75;;;25.98;;
4244;SDS011;2136;48.502;9.194;2022-12-18T12:35:55;69.65;;;30.42;;
4244;SDS011;2136;48.502;9.194;2022-12-18T12:38:28;60.70;;;28.63;;
4244;SDS011;2136;48.502;9.194;2022-12-18T12:41:02;56.83;;;27.20;;
4244;SDS011;2136;48.502;9.194;2022-12-18T12:43:35;57.20;;;28.10;;
4244;SDS011;2136;48.502;9.194;2022-12-18T12:46:04;86.25;;;35.78;;
4244;SDS011;2136;48.502;9.194;2022-12-18T12:48:36;68.55;;;32.10;;
4244;SDS011;2136;48.502;9.194;2022-12-18T12:51:08;66.03;;;32.05;;
4244;SDS011;2136;48.502;9.194;2022-12-18T12:53:42;58.85;;;30.38;;
4244;SDS011;2136;48.502;9.194;2022-12-18T12:56:10;64.88;;;33.20;;
4244;SDS011;2136;48.502;9.194;2022-12-18T12:58:43;61.53;;;30.08;;
4244;SDS011;2136;48.502;9.194;2022-12-18T13:01:22;58.10;;;30.27;;
4244;SDS011;2136;48.502;9.194;2022-12-18T13:03:55;74.38;;;32.47;;
4244;SDS011;2136;48.502;9.194;2022-12-18T13:06:40;69.13;;;32.88;;
4244;SDS011;2136;48.502;9.194;2022-12-18T13:09:12;70.40;;;29.85;;
4244;SDS011;2136;48.502;9.194;2022-12-18T13:11:39;71.00;;;32.80;;
4244;SDS011;2136;48.502;9.194;2022-12-18T13:14:28;77.82;;;35.83;;
4244;SDS011;2136;48.502;9.194;2022-12-18T13:17:16;84.20;;;38.35;;
4244;SDS011;2136;48.502;9.194;2022-12-18T13:20:03;78.63;;;35.20;;
4244;SDS011;2136;48.502;9.194;2022-12-18T13:22:33;85.55;;;37.03;;
4244;SDS011;2136;48.502;9.194;2022-12-18T13:25:01;76.95;;;34.75;;
4244;SDS011;2136;48.502;9.194;2022-12-18T13:27:55;69.18;;;32.58;;
4244;SDS011;2136;48.502;9.194;2022-12-18T13:30:42;82.88;;;33.75;;
4244;SDS011;2136;48.502;9.194;2022-12-18T13:36:12;69.63;;;34.13;;
4244;SDS011;2136;48.502;9.194;2022-12-18T13:38:42;68.30;;;34.13;;
4244;SDS011;2136;48.502;9.194;2022-12-18T13:41:22;82.63;;;35.40;;
4244;SDS011;2136;48.502;9.194;2022-12-18T13:43:51;74.55;;;35.33;;
4244;SDS011;2136;48.502;9.194;2022-12-18T13:46:21;71.20;;;33.80;;
4244;SDS011;2136;48.502;9.194;2022-12-18T13:48:52;80.13;;;37.60;;
4244;SDS011;2136;48.502;9.194;2022-12-18T13:51:24;79.90;;;33.80;;
4244;SDS011;2136;48.502;9.194;2022-12-18T13:53:52;77.90;;;34.85;;
4244;SDS011;2136;48.502;9.194;2022-12-18T13:56:24;84.85;;;35.22;;
4244;SDS011;2136;48.502;9.194;2022-12-18T14:01:52;84.30;;;34.55;;
4244;SDS011;2136;48.502;9.194;2022-12-18T14:04:22;63.30;;;31.50;;
4244;SDS011;2136;48.502;9.194;2022-12-18T14:06:52;71.47;;;34.65;;
4244;SDS011;2136;48.502;9.194;2022-12-18T14:09:24;67.95;;;33.10;;
4244;SDS011;2136;48.502;9.194;2022-12-18T14:11:52;65.88;;;32.35;;
4244;SDS011;2136;48.502;9.194;2022-12-18T14:14:41;62.17;;;30.27;;
4244;SDS011;2136;48.502;9.194;2022-12-18T14:17:12;63.65;;;32.20;;
4244;SDS011;2136;48.502;9.194;2022-12-18T14:19:43;71.40;;;31.30;;
4244;SDS011;2136;48.502;9.194;2022-12-18T14:22:15;76.00;;;32.33;;
4244;SDS011;2136;48.502;9.194;2022-12-18T14:24:43;61.50;;;30.75;;
4244;SDS011;2136;48.502;9.194;2022-12-18T14:27:20;71.32;;;37.17;;
4244;SDS011;2136;48.502;9.194;2022-12-18T14:29:48;78.07;;;33.05;;
4244;SDS011;2136;48.502;9.194;2022-12-18T14:32:17;63.50;;;29.17;;
4244;SDS011;2136;48.502;9.194;2022-12-18T14:34:46;56.35;;;26.77;;
4244;SDS011;2136;48.502;9.194;2022-12-18T14:37:14;47.65;;;22.52;;
4244;SDS011;2136;48.502;9.194;2022-12-18T14:39:53;53.22;;;25.23;;
4244;SDS011;2136;48.502;9.194;2022-12-18T14:42:22;42.45;;;19.30;;
4244;SDS011;2136;48.502;9.194;2022-12-18T14:44:53;38.90;;;18.65;;
4244;SDS011;2136;48.502;9.194;2022-12-18T14:48:00;39.95;;;16.13;;
4244;SDS011;2136;48.502;9.194;2022-12-18T14:50:33;44.13;;;17.00;;
4244;SDS011;2136;48.502;9.194;2022-12-18T14:53:01;35.53;;;15.40;;
4244;SDS011;2136;48.502;9.194;2022-12-18T14:55:28;37.35;;;16.63;;
4244;SDS011;2136;48.502;9.194;2022-12-18T14:57:55;34.17;;;15.00;;
4244;SDS011;2136;48.502;9.194;2022-12-18T15:00:23;41.08;;;19.60;;
4244;SDS011;2136;48.502;9.194;2022-12-18T15:02:52;38.75;;;15.55;;
4244;SDS011;2136;48.502;9.194;2022-12-18T15:05:24;40.67;;;17.83;;
4244;SDS011;2136;48.502;9.194;2022-12-18T15:07:53;38.90;;;17.65;;
4244;SDS011;2136;48.502;9.194;2022-12-18T15:10:21;43.28;;;18.35;;
4244;SDS011;2136;48.502;9.194;2022-12-18T15:12:50;42.65;;;17.98;;
4244;SDS011;2136;48.502;9.194;2022-12-18T15:15:46;41.05;;;18.80;;
4244;SDS011;2136;48.502;9.194;2022-12-18T15:18:15;41.38;;;17.92;;
4244;SDS011;2136;48.502;9.194;2022-12-18T15:20:46;44.10;;;19.15;;